Terminal Aerodrome Forecast
Issued by NWS El Paso, TX

Home | Current Version | Previous Version | Text Only | Print | Product List | Glossary On
Versions: 1 2 3 4 5 6 7 8 9 10 11 12 13 14 15 16
000
FTUS44 KEPZ 170500
TAFELP
TAF
KELP 170527Z 1706/1806 03010KT P6SM VCSH SCT015 BKN050 OVC080
      TEMPO 1708/1712 5SM -SHRA BKN015
     FM171200 04007KT P6SM VCSH SCT005 BKN025
     FM171900 09011KT P6SM -SHRA SCT020 BKN040 OVC060
     FM180000 05010KT P6SM VCSH SCT025 BKN050=

USA.gov is the U.S. government's official web portal to all federal, state and local government web resources and services.